createdAt,value
2022-09-12T00:02:16.762Z,13.88
2022-09-12T00:04:46.033Z,14.05
2022-09-12T00:07:12.521Z,12.70
2022-09-12T00:09:39.723Z,10.17
2022-09-12T00:12:06.734Z,10.95
2022-09-12T00:14:33.519Z,10.20
2022-09-12T00:17:00.730Z,9.50
2022-09-12T00:19:28.745Z,7.20
2022-09-12T00:21:55.946Z,9.23
2022-09-12T00:24:22.817Z,9.65
2022-09-12T00:26:49.397Z,9.65
2022-09-12T00:29:18.624Z,9.38
2022-09-12T00:31:45.573Z,9.15
2022-09-12T00:34:12.740Z,9.97
2022-09-12T00:36:41.271Z,9.07
2022-09-12T00:39:09.162Z,10.60
2022-09-12T00:41:38.480Z,11.55
2022-09-12T00:44:11.041Z,11.82
2022-09-12T00:46:59.199Z,12.27
2022-09-12T00:49:35.011Z,11.07
2022-09-12T00:52:10.724Z,10.55
2022-09-12T00:54:57.730Z,10.77
2022-09-12T00:57:29.842Z,11.57
2022-09-12T01:00:02.087Z,10.17
2022-09-12T01:02:28.756Z,10.10
2022-09-12T01:04:55.993Z,11.10
2022-09-12T01:07:22.586Z,10.63
2022-09-12T01:09:49.385Z,10.40
2022-09-12T01:12:16.832Z,9.47
2022-09-12T01:14:43.359Z,10.45
2022-09-12T01:17:16.810Z,10.63
2022-09-12T01:19:43.249Z,10.38
2022-09-12T01:22:47.098Z,9.90
2022-09-12T01:25:33.707Z,10.20
2022-09-12T01:28:34.813Z,10.10
2022-09-12T01:31:13.771Z,10.00
2022-09-12T01:33:55.970Z,10.57
2022-09-12T01:36:38.368Z,10.57
2022-09-12T01:39:11.775Z,10.07
2022-09-12T01:42:21.575Z,10.40
2022-09-12T01:45:14.616Z,12.05
2022-09-12T01:47:47.474Z,11.18
2022-09-12T01:50:25.026Z,12.50
2022-09-12T01:52:57.248Z,12.03
2022-09-12T01:55:29.743Z,10.70
2022-09-12T01:58:13.655Z,11.85
2022-09-12T02:00:48.278Z,11.95
2022-09-12T02:03:20.540Z,13.18
2022-09-12T02:05:59.637Z,16.30
2022-09-12T02:08:29.482Z,13.77
2022-09-12T02:11:11.297Z,12.27
2022-09-12T02:13:45.584Z,11.82
2022-09-12T02:16:21.215Z,12.25
2022-09-12T02:18:55.722Z,10.60
2022-09-12T02:21:24.725Z,10.93
2022-09-12T02:36:14.552Z,11.43
2022-09-12T02:38:47.090Z,10.68
2022-09-12T02:41:19.290Z,11.15
2022-09-12T02:43:46.781Z,10.93
2022-09-12T02:46:21.290Z,12.27
2022-09-12T02:48:47.827Z,11.60
2022-09-12T02:51:14.891Z,11.10
2022-09-12T02:53:42.076Z,11.75
2022-09-12T02:56:14.364Z,11.95
2022-09-12T02:58:41.160Z,11.60
2022-09-12T03:01:17.387Z,11.73
2022-09-12T03:04:08.714Z,11.43
2022-09-12T03:06:57.937Z,10.88
2022-09-12T03:09:43.723Z,11.52
2022-09-12T03:12:30.863Z,10.90
2022-09-12T03:15:07.284Z,17.67
2022-09-12T03:18:14.732Z,13.63
2022-09-12T03:20:53.670Z,16.55
2022-09-12T03:23:30.758Z,11.30
2022-09-12T03:26:03.131Z,10.88
2022-09-12T03:28:31.164Z,10.53
2022-09-12T03:30:58.332Z,10.85
2022-09-12T03:33:26.801Z,10.05
2022-09-12T03:35:53.865Z,10.35
2022-09-12T03:38:20.409Z,10.90
2022-09-12T03:40:50.310Z,13.53
2022-09-12T03:43:19.481Z,11.23
2022-09-12T03:45:52.204Z,10.50
2022-09-12T03:48:18.795Z,10.73
2022-09-12T03:50:45.510Z,9.70
2022-09-12T03:53:16.547Z,9.70
2022-09-12T03:55:43.776Z,9.93
2022-09-12T03:58:10.256Z,11.35
2022-09-12T04:00:38.823Z,9.55
2022-09-12T04:03:05.325Z,9.82
2022-09-12T04:21:30.037Z,10.20
2022-09-12T04:23:56.871Z,10.98
2022-09-12T04:26:23.738Z,11.90
2022-09-12T04:28:54.987Z,10.70
2022-09-12T04:31:22.738Z,11.80
2022-09-12T04:33:57.332Z,11.27
2022-09-12T04:36:25.244Z,12.02
2022-09-12T04:38:52.205Z,12.70
2022-09-12T04:41:24.468Z,13.63
2022-09-12T04:43:58.259Z,12.52
2022-09-12T04:46:26.426Z,13.88
2022-09-12T04:48:56.633Z,14.25
2022-09-12T04:51:29.631Z,14.20
2022-09-12T04:53:59.052Z,13.23
2022-09-12T04:56:28.629Z,13.70
2022-09-12T04:58:58.706Z,12.65
2022-09-12T05:01:29.773Z,12.27
2022-09-12T05:03:57.754Z,12.10
2022-09-12T05:06:30.099Z,12.52
2022-09-12T05:08:58.462Z,12.68
2022-09-12T05:11:46.723Z,12.77
2022-09-12T05:14:16.375Z,13.90
2022-09-12T05:16:48.661Z,12.63
2022-09-12T05:19:16.121Z,12.38
2022-09-12T05:21:42.820Z,14.30
2022-09-12T05:24:11.312Z,12.82
2022-09-12T05:26:37.979Z,14.43
2022-09-12T05:29:05.626Z,14.70
2022-09-12T05:31:32.266Z,15.85
2022-09-12T05:33:59.198Z,14.20
2022-09-12T05:36:29.290Z,15.60
2022-09-12T05:38:56.762Z,16.40
2022-09-12T05:41:25.682Z,15.90
2022-09-12T05:43:54.686Z,14.50
2022-09-12T05:46:23.467Z,15.48
2022-09-12T05:48:55.588Z,15.05
2022-09-12T05:51:26.765Z,16.17
2022-09-12T05:53:57.868Z,16.97
2022-09-12T05:56:27.388Z,16.00
2022-09-12T05:59:07.597Z,17.35
2022-09-12T06:01:35.384Z,16.58
2022-09-12T06:04:05.002Z,16.17
2022-09-12T06:06:32.898Z,16.97
2022-09-12T06:09:03.213Z,18.27
2022-09-12T06:11:33.351Z,17.27
2022-09-12T06:14:00.860Z,16.70
2022-09-12T06:16:30.341Z,16.13
2022-09-12T06:19:07.539Z,14.30
2022-09-12T06:21:38.113Z,17.15
2022-09-12T06:24:04.967Z,17.05
2022-09-12T06:26:31.693Z,17.60
2022-09-12T06:29:00.701Z,18.65
2022-09-12T06:31:31.465Z,18.57
2022-09-12T06:34:02.074Z,18.75
2022-09-12T06:36:31.588Z,17.05
2022-09-12T06:39:04.098Z,17.67
2022-09-12T06:41:33.911Z,17.33
2022-09-12T06:44:00.993Z,17.27
2022-09-12T06:46:28.395Z,19.00
2022-09-12T06:49:00.616Z,17.85
2022-09-12T06:51:28.821Z,19.77
2022-09-12T06:53:59.424Z,19.48
2022-09-12T06:56:27.906Z,17.50
2022-09-12T06:58:57.422Z,19.80
2022-09-12T07:01:26.690Z,17.92
2022-09-12T07:03:56.018Z,15.05
2022-09-12T07:06:29.829Z,19.23
2022-09-12T07:08:58.523Z,20.77
2022-09-12T07:11:30.468Z,19.00
2022-09-12T07:13:59.923Z,19.88
2022-09-12T07:16:26.899Z,20.13
2022-09-12T07:18:55.642Z,15.40
2022-09-12T07:21:22.870Z,21.80
2022-09-12T07:23:55.306Z,20.45
2022-09-12T07:26:21.996Z,21.08
2022-09-12T07:29:07.875Z,23.08
2022-09-12T07:31:42.928Z,21.02
2022-09-12T07:34:46.068Z,20.57
2022-09-12T07:37:12.561Z,23.35
2022-09-12T07:39:39.310Z,23.63
2022-09-12T08:22:25.602Z,21.47
2022-09-12T08:24:52.619Z,19.52
2022-09-12T08:27:19.433Z,19.95
2022-09-12T08:29:46.033Z,20.65
2022-09-12T08:32:12.556Z,23.08
2022-09-12T08:34:39.156Z,20.17
2022-09-12T08:37:05.884Z,20.40
2022-09-12T08:39:33.263Z,16.67
2022-09-12T08:42:07.078Z,17.77
2022-09-12T08:45:01.814Z,16.65
2022-09-12T08:47:40.653Z,17.63
2022-09-12T08:50:15.784Z,17.02
2022-09-12T08:53:02.479Z,15.40
2022-09-12T08:55:38.186Z,13.68
2022-09-12T08:58:17.558Z,15.18
2022-09-12T09:01:02.916Z,14.17
2022-09-12T09:04:17.649Z,16.35
2022-09-12T09:07:08.534Z,14.65
2022-09-12T09:10:19.739Z,15.38
2022-09-12T09:13:35.761Z,14.77
2022-09-12T09:16:16.247Z,15.73
2022-09-12T09:18:46.177Z,13.20
2022-09-12T09:21:24.980Z,14.55
2022-09-12T09:24:00.204Z,14.00
2022-09-12T09:26:33.711Z,14.05
2022-09-12T09:29:10.962Z,12.80
2022-09-12T09:31:42.417Z,12.40
2022-09-12T09:34:24.160Z,10.75
2022-09-12T09:36:55.941Z,12.05
2022-09-12T09:39:50.010Z,11.13
2022-09-12T09:42:50.933Z,12.70
2022-09-12T09:45:21.197Z,12.10
2022-09-12T09:48:01.648Z,10.32
2022-09-12T09:50:40.409Z,10.98
2022-09-12T09:53:22.439Z,11.77
2022-09-12T09:55:50.121Z,12.53
2022-09-12T09:58:35.724Z,13.30
2022-09-12T10:01:06.163Z,13.18
2022-09-12T10:03:40.202Z,12.10
2022-09-12T10:06:31.109Z,12.15
2022-09-12T10:09:07.489Z,12.60
2022-09-12T10:11:34.219Z,12.15
2022-09-12T10:14:01.456Z,10.35
2022-09-12T10:16:34.626Z,10.68
2022-09-12T10:19:03.467Z,11.30
2022-09-12T10:21:42.871Z,8.30
2022-09-12T10:24:30.670Z,11.77
2022-09-12T10:27:07.178Z,10.82
2022-09-12T10:29:43.949Z,10.65
2022-09-12T10:32:17.543Z,10.95
2022-09-12T10:34:45.939Z,10.27
2022-09-12T10:37:25.396Z,10.35
2022-09-12T10:39:59.009Z,8.38
2022-09-12T10:42:58.029Z,9.98
2022-09-12T10:45:33.215Z,9.10
2022-09-12T10:48:24.720Z,9.60
2022-09-12T10:50:51.919Z,8.93
2022-09-12T10:53:34.514Z,7.05
2022-09-12T10:56:10.201Z,8.85
2022-09-12T10:58:42.956Z,8.73
2022-09-12T11:01:44.445Z,10.00
2022-09-12T11:04:33.982Z,8.82
2022-09-12T11:07:34.220Z,7.38
2022-09-12T11:10:18.333Z,6.35
2022-09-12T11:12:49.802Z,7.78
2022-09-12T11:15:44.771Z,6.13
2022-09-12T11:18:37.459Z,5.45
2022-09-12T11:21:09.999Z,5.00
2022-09-12T11:23:57.529Z,4.90
2022-09-12T11:26:45.188Z,5.13
2022-09-12T11:29:46.940Z,4.57
2022-09-12T11:32:48.347Z,5.88
2022-09-12T11:35:28.044Z,4.50
2022-09-12T11:38:34.963Z,4.72
2022-09-12T11:41:08.342Z,4.60
2022-09-12T11:43:46.878Z,4.80
2022-09-12T11:46:43.586Z,4.45
2022-09-12T11:49:37.392Z,5.43
2022-09-12T11:52:11.015Z,4.90
2022-09-12T11:54:54.010Z,4.03
2022-09-12T11:57:37.816Z,3.20
2022-09-12T12:00:17.920Z,3.53
2022-09-12T12:03:14.753Z,3.70
2022-09-12T12:06:01.904Z,3.15
2022-09-12T12:08:31.210Z,3.35
2022-09-12T12:11:00.739Z,3.30
2022-09-12T12:13:31.188Z,3.25
2022-09-12T12:16:21.423Z,3.50
2022-09-12T12:18:57.118Z,2.40
2022-09-12T12:21:32.119Z,3.40
2022-09-12T12:24:25.898Z,2.87
2022-09-12T12:27:01.877Z,3.10
2022-09-12T12:29:44.314Z,3.03
2022-09-12T12:32:14.906Z,2.50
2022-09-12T12:34:45.752Z,2.70
2022-09-12T12:37:47.871Z,3.10
2022-09-12T12:40:25.673Z,2.85
2022-09-12T12:43:01.935Z,2.58
2022-09-12T12:45:28.373Z,2.50
2022-09-12T12:48:08.317Z,2.40
2022-09-12T12:50:35.314Z,3.00
2022-09-12T12:53:07.247Z,2.70
2022-09-12T12:55:39.194Z,2.80
2022-09-12T12:58:08.905Z,2.85
2022-09-12T13:00:40.039Z,3.03
2022-09-12T13:03:24.503Z,3.03
2022-09-12T13:05:57.907Z,2.83
2022-09-12T13:08:33.828Z,2.50
2022-09-12T13:11:07.790Z,2.47
2022-09-12T13:13:50.299Z,2.92
2022-09-12T13:16:52.207Z,2.80
2022-09-12T13:19:35.791Z,2.55
2022-09-12T13:22:06.616Z,2.75
2022-09-12T13:24:33.597Z,2.58
2022-09-12T13:27:00.746Z,3.70
2022-09-12T13:29:28.411Z,3.30
2022-09-12T13:31:59.370Z,2.63
2022-09-12T13:34:30.389Z,4.10
2022-09-12T13:37:32.397Z,2.70
2022-09-12T13:40:24.204Z,2.80
2022-09-12T13:43:14.928Z,2.33
2022-09-12T13:45:45.927Z,2.80
2022-09-12T13:48:22.184Z,2.58
2022-09-12T13:50:59.250Z,2.22
2022-09-12T13:53:29.885Z,2.92
2022-09-12T13:55:59.897Z,2.73
2022-09-12T13:58:29.361Z,2.15
2022-09-12T14:01:17.536Z,2.90
2022-09-12T14:04:15.478Z,2.10
2022-09-12T14:06:51.147Z,2.38
2022-09-12T14:09:29.948Z,3.90
2022-09-12T14:11:58.409Z,2.70
2022-09-12T14:14:34.305Z,2.47
2022-09-12T14:17:01.365Z,2.47
2022-09-12T14:19:29.248Z,2.40
2022-09-12T14:21:57.607Z,3.03
2022-09-12T14:24:24.669Z,2.40
2022-09-12T14:26:56.900Z,2.45
2022-09-12T14:29:25.521Z,2.30
2022-09-12T14:32:04.111Z,2.67
2022-09-12T14:34:31.296Z,2.43
2022-09-12T14:36:58.665Z,1.88
2022-09-12T14:39:38.052Z,2.38
2022-09-12T14:42:12.591Z,2.97
2022-09-12T14:44:39.495Z,2.53
2022-09-12T14:47:21.384Z,3.13
2022-09-12T14:49:50.261Z,2.20
2022-09-12T14:52:27.868Z,2.78
2022-09-12T14:55:18.311Z,2.63
2022-09-12T14:57:45.957Z,2.85
2022-09-12T15:00:21.230Z,2.20
2022-09-12T15:02:50.428Z,2.63
2022-09-12T15:05:20.286Z,2.40
2022-09-12T15:08:15.970Z,2.35
2022-09-12T15:10:42.575Z,2.60
2022-09-12T15:13:14.087Z,2.53
2022-09-12T15:15:43.945Z,5.18
2022-09-12T15:18:11.201Z,3.05
2022-09-12T15:20:39.752Z,3.50
2022-09-12T15:23:14.052Z,4.90
2022-09-12T15:25:41.289Z,2.77
2022-09-12T15:28:24.179Z,3.17
2022-09-12T15:30:53.070Z,6.18
2022-09-12T15:33:22.819Z,2.72
2022-09-12T15:35:50.031Z,2.65
2022-09-12T15:38:17.141Z,3.37
2022-09-12T15:40:46.292Z,4.07
2022-09-12T15:43:14.988Z,3.45
2022-09-12T15:45:43.389Z,2.15
2022-09-12T15:48:10.344Z,2.50
2022-09-12T15:50:37.308Z,1.97
2022-09-12T15:53:04.179Z,1.90
2022-09-12T15:55:32.590Z,2.13
2022-09-12T15:58:04.882Z,2.13
2022-09-12T16:00:33.855Z,2.42
2022-09-12T16:03:02.352Z,2.43
2022-09-12T16:05:29.646Z,2.70
2022-09-12T16:07:56.139Z,2.08
2022-09-12T16:10:26.871Z,1.88
2022-09-12T16:12:53.629Z,2.00
2022-09-12T16:15:22.940Z,1.70
2022-09-12T16:17:49.637Z,1.70
2022-09-12T16:20:16.489Z,2.10
2022-09-12T16:22:43.684Z,1.80
2022-09-12T16:25:10.364Z,2.08
2022-09-12T16:27:38.009Z,1.40
2022-09-12T16:30:06.487Z,1.85
2022-09-12T16:32:33.254Z,2.20
2022-09-12T16:35:00.059Z,2.95
2022-09-12T16:37:26.900Z,2.30
2022-09-12T16:39:53.753Z,1.90
2022-09-12T16:42:21.727Z,2.00
2022-09-12T16:44:48.568Z,2.83
2022-09-12T16:47:15.617Z,1.65
2022-09-12T16:49:42.232Z,1.75
2022-09-12T16:52:09.067Z,1.73
2022-09-12T16:54:38.760Z,1.60
2022-09-12T16:57:06.494Z,1.90
2022-09-12T16:59:33.054Z,1.30
2022-09-12T17:01:59.768Z,1.83
2022-09-12T17:04:26.342Z,1.97
2022-09-12T17:06:52.999Z,1.90
2022-09-12T17:09:19.800Z,1.95
2022-09-12T17:11:49.333Z,2.38
2022-09-12T17:14:16.155Z,1.80
2022-09-12T17:16:50.871Z,2.00
2022-09-12T17:19:26.415Z,2.28
2022-09-12T17:21:53.588Z,1.50
2022-09-12T17:24:20.758Z,1.83
2022-09-12T17:26:47.608Z,1.67
2022-09-12T17:29:14.755Z,1.60
2022-09-12T17:31:42.822Z,1.67
2022-09-12T17:34:14.231Z,2.00
2022-09-12T17:36:44.247Z,1.80
2022-09-12T17:39:11.947Z,1.75
2022-09-12T17:41:38.916Z,1.87
2022-09-12T17:44:07.526Z,2.00
2022-09-12T17:46:36.856Z,1.50
2022-09-12T17:49:13.949Z,1.55
2022-09-12T17:51:41.128Z,4.03
2022-09-12T17:54:11.786Z,1.60
2022-09-12T17:56:39.754Z,1.55
2022-09-12T17:59:08.647Z,2.08
2022-09-12T18:01:53.726Z,2.00
2022-09-12T18:04:20.379Z,2.58
2022-09-12T18:06:50.867Z,2.47
2022-09-12T18:09:22.096Z,2.47
2022-09-12T18:11:50.549Z,2.17
2022-09-12T18:14:18.468Z,2.83
2022-09-12T18:16:46.227Z,2.58
2022-09-12T18:19:14.265Z,2.77
2022-09-12T18:21:41.360Z,2.30
2022-09-12T18:24:09.510Z,2.08
2022-09-12T18:26:36.174Z,2.83
2022-09-12T18:29:02.915Z,2.90
2022-09-12T18:31:30.649Z,2.90
2022-09-12T18:34:00.306Z,2.60
2022-09-12T18:36:27.203Z,3.13
2022-09-12T18:38:53.723Z,2.83
2022-09-12T18:41:22.690Z,3.17
2022-09-12T18:43:54.607Z,3.10
2022-09-12T18:46:21.312Z,3.20
2022-09-12T18:48:47.886Z,2.97
2022-09-12T18:51:17.892Z,3.17
2022-09-12T18:53:49.441Z,2.38
2022-09-12T18:56:16.158Z,2.60
2022-09-12T18:58:43.881Z,2.30
2022-09-12T19:01:15.705Z,2.80
2022-09-12T19:03:42.374Z,2.25
2022-09-12T19:06:11.697Z,2.63
2022-09-12T19:08:39.012Z,2.97
2022-09-12T19:11:05.837Z,2.95
2022-09-12T19:13:35.870Z,2.78
2022-09-12T19:16:04.067Z,2.70
2022-09-12T19:18:31.526Z,2.83
2022-09-12T19:20:58.038Z,2.80
2022-09-12T19:23:24.613Z,3.42
2022-09-12T19:25:58.932Z,3.00
2022-09-12T19:28:26.608Z,3.08
2022-09-12T19:30:53.789Z,3.17
2022-09-12T19:33:21.075Z,3.80
2022-09-12T19:35:47.966Z,3.70
2022-09-12T19:38:14.905Z,3.90
2022-09-12T19:40:43.217Z,3.47
2022-09-12T19:43:10.242Z,3.60
2022-09-12T19:45:37.143Z,3.77
2022-09-12T19:48:03.752Z,4.15
2022-09-12T19:50:33.708Z,3.40
2022-09-12T19:53:00.344Z,4.07
2022-09-12T19:55:26.848Z,4.20
2022-09-12T19:57:54.331Z,5.27
2022-09-12T20:00:20.956Z,4.80
2022-09-12T20:02:51.785Z,4.65
2022-09-12T20:05:19.922Z,4.70
2022-09-12T20:07:46.992Z,4.80
2022-09-12T20:10:14.278Z,4.77
2022-09-12T20:12:41.547Z,4.07
2022-09-12T20:15:08.773Z,4.07
2022-09-12T20:17:36.105Z,3.65
2022-09-12T20:20:02.779Z,3.40
2022-09-12T20:22:29.325Z,3.53
2022-09-12T20:24:56.192Z,3.42
2022-09-12T20:27:23.119Z,3.88
2022-09-12T20:29:49.691Z,3.33
2022-09-12T20:32:18.253Z,3.45
2022-09-12T20:34:44.692Z,3.77
2022-09-12T20:37:11.617Z,3.88
2022-09-12T20:39:38.251Z,3.70
2022-09-12T20:42:05.096Z,3.63
2022-09-12T20:44:31.621Z,3.33
2022-09-12T20:46:58.306Z,4.10
2022-09-12T20:49:24.899Z,3.92
2022-09-12T20:51:52.627Z,4.60
2022-09-12T20:54:19.173Z,4.07
2022-09-12T20:56:45.856Z,3.95
2022-09-12T20:59:13.005Z,4.07
2022-09-12T21:01:39.807Z,3.90
2022-09-12T21:04:06.328Z,4.10
2022-09-12T21:06:33.049Z,3.80
2022-09-12T21:09:00.823Z,4.10
2022-09-12T21:11:28.629Z,3.80
2022-09-12T21:13:55.244Z,3.90
2022-09-12T21:16:26.394Z,4.40
2022-09-12T21:18:57.154Z,4.30
2022-09-12T21:21:23.780Z,4.38
2022-09-12T21:23:51.497Z,3.77
2022-09-12T21:26:18.465Z,4.30
2022-09-12T21:28:46.685Z,3.72
2022-09-12T21:31:13.918Z,4.75
2022-09-12T21:33:42.158Z,3.65
2022-09-12T21:36:10.493Z,3.87
2022-09-12T21:38:37.820Z,3.78
2022-09-12T21:41:09.431Z,3.92
2022-09-12T21:43:36.653Z,3.88
2022-09-12T21:46:04.973Z,3.85
2022-09-12T21:48:32.062Z,3.23
2022-09-12T21:50:58.769Z,3.78
2022-09-12T21:53:25.708Z,3.80
2022-09-12T21:55:52.406Z,3.63
2022-09-12T21:58:19.299Z,3.63
2022-09-12T22:00:46.010Z,3.40
2022-09-12T22:03:13.183Z,3.60
2022-09-12T22:05:43.263Z,3.70
2022-09-12T22:08:11.524Z,3.38
2022-09-12T22:10:40.649Z,3.38
2022-09-12T22:13:07.273Z,3.87
2022-09-12T22:15:40.497Z,3.35
2022-09-12T22:18:07.881Z,3.58
2022-09-12T22:20:34.319Z,4.18
2022-09-12T22:23:24.329Z,4.03
2022-09-12T22:25:54.350Z,3.20
2022-09-12T22:28:21.410Z,3.38
2022-09-12T22:30:48.598Z,3.90
2022-09-12T22:33:15.601Z,4.50
2022-09-12T22:35:44.686Z,3.80
2022-09-12T22:38:11.381Z,3.57
2022-09-12T22:40:38.521Z,4.35
2022-09-12T22:43:05.211Z,4.00
2022-09-12T22:45:32.764Z,4.03
2022-09-12T22:48:01.031Z,3.72
2022-09-12T22:50:27.904Z,3.50
2022-09-12T22:52:54.355Z,3.72
2022-09-12T22:55:20.930Z,4.30
2022-09-12T22:57:47.798Z,4.03
2022-09-12T23:00:15.222Z,3.90
2022-09-12T23:02:41.806Z,3.50
2022-09-12T23:05:08.784Z,3.92
2022-09-12T23:07:35.868Z,3.85
2022-09-12T23:10:02.757Z,4.10
2022-09-12T23:12:29.644Z,4.40
2022-09-12T23:14:56.645Z,4.07
2022-09-12T23:17:23.261Z,4.20
2022-09-12T23:19:49.726Z,4.60
2022-09-12T23:22:16.530Z,4.32
2022-09-12T23:24:43.177Z,5.40
2022-09-12T23:27:09.807Z,7.13
2022-09-12T23:29:36.417Z,5.60
2022-09-12T23:32:03.902Z,5.05
2022-09-12T23:34:31.006Z,5.50
2022-09-12T23:36:57.694Z,5.22
2022-09-12T23:39:24.264Z,5.20
2022-09-12T23:41:50.781Z,5.32
2022-09-12T23:44:17.321Z,5.05
2022-09-12T23:46:44.007Z,4.57
2022-09-12T23:49:10.554Z,4.78
2022-09-12T23:51:37.217Z,5.97
2022-09-12T23:54:04.459Z,5.38
2022-09-12T23:56:31.002Z,5.82
2022-09-12T23:58:58.919Z,5.38
